Airfield :
LOGIN :

Register | Disclaimer

   EN    FR    IT 

 










Legend :    VFR   Marginal VFR   IFR   Intensive IFR   Very Intensive IFR
Visi :
Ceiling :
>= 8 km
>= 3000ft
5 to 8 km
1000 to 3000 ft
1500m to 5 km
500 to 1000 ft
800 to 1500m
200 to 500 ft
< 800m
< 200 ft
Symbols :   Thunderstorms  Fog  Heavy snow  Heavy precipitations  Wind > 20 kt
SIGMETs :     Misc.  Thunderstorms  Icing  Turbulence  Mountain Waves  Volcanic Ashes






- Airport Elevation : 231 ft
- IATA code : WTN


EGXW - RAF Waddington

CURRENT METAR :
  • 091522Z 29008KT 9999 FEW030 06/M01 Q1017 NOSIG RMK BLU BLU

EXPIRED METARs :
  • 091450Z 32014KT 9999 FEW030 06/M01 Q1016 NOSIG RMK BLU BLU
  • 091419Z 33016KT 9999 FEW030 07/M02 Q1015 NOSIG RMK BLU BLU
  • 091350Z 33014KT 9999 FEW030 07/M01 Q1014 NOSIG RMK BLU BLU
  • 091322Z 33016G28KT 9999 FEW030 07/M01 Q1014 NOSIG RMK BLU BLU
  • 091250Z 33017KT 9999 FEW028 07/M01 Q1012 NOSIG RMK BLU BLU

TAF TAF EGXW
Valid from the 09 at 15:00 until the 10 at 09:00 UTC


091347Z 0915/1009 30015KT 9999 FEW030
BECMG 0919/0922 19007KT
BECMG 1006/1009 19018G28KT



MET'MAP, your aeronautical weather chart ! - Copyright ORBIFLY December 2007 - Disclaimer

ORBIFLY MET'MAP TEAM :

Programming & Development : Alexandra Zaïnal
Concept & original design : Baudouin d'Aumeries
Assistance for programming : Marc-Olivier Méhu
Technical & hardware support : Manuel Goepfert

Contact : metmap@orbifly.com




SOURCES & CREDITS :

   NOAA